Terminal Aerodrome Forecast
Issued by NWS Wilmington, OH

Current Version | Previous Version | Graphics & Text | Print | Product List | Glossary On
Versions: 1 2 3 4 5 6 7 8 9 10 11 12 13 14 15 16 17 18 19 20 21
232
FTUS41 KILN 230902 AAB
TAFILN
TAF AMD
KILN 230902Z 2309/2406 22008KT P6SM -SHRA VCTS BKN035CB OVC070
      TEMPO 2309/2311 5SM -TSRA BKN025CB
     FM231200 25008KT P6SM BKN025
     FM231700 25008KT P6SM VCSH BKN035
     FM232000 25009KT P6SM -SHRA VCTS BKN035CB
      TEMPO 2322/2324 5SM -TSRA BKN025CB
     FM240100 30005KT P6SM VCSH BKN035=

USA.gov is the U.S. government's official web portal to all federal, state and local government web resources and services.